createdAt,value
2018-05-11T14:57:39.422Z,65.70
2018-05-11T15:00:07.569Z,65.90
2018-05-11T15:02:36.507Z,67.30
2018-05-11T15:05:04.651Z,68.00
2018-05-11T15:07:32.762Z,67.40
2018-05-11T15:10:01.662Z,67.10
2018-05-11T15:12:30.175Z,67.00
2018-05-11T15:15:04.843Z,67.10
2018-05-11T15:17:32.983Z,67.50
2018-05-11T15:20:01.105Z,68.00
2018-05-11T15:22:29.259Z,68.10
2018-05-11T15:24:57.387Z,69.50
2018-05-11T15:27:25.525Z,68.20
2018-05-11T15:29:59.950Z,67.70
2018-05-11T15:32:28.669Z,67.70
2018-05-11T15:34:56.818Z,68.20
2018-05-11T15:37:25.343Z,67.30
2018-05-11T15:39:53.455Z,68.00
2018-05-11T15:42:21.593Z,68.50
2018-05-11T15:44:49.719Z,68.70
2018-05-11T15:47:18.609Z,69.20
2018-05-11T15:49:47.101Z,69.10
2018-05-11T15:52:15.258Z,71.00
2018-05-11T15:54:43.383Z,70.80
2018-05-11T15:57:12.397Z,70.90
2018-05-11T15:59:40.523Z,70.00
2018-05-11T16:02:09.443Z,69.90
2018-05-11T16:04:37.562Z,69.90
2018-05-11T16:07:05.715Z,69.40
2018-05-11T16:09:34.302Z,70.10
2018-05-11T16:12:03.147Z,70.70
2018-05-11T16:14:32.323Z,70.40
2018-05-11T16:17:01.255Z,70.70
2018-05-11T16:19:29.366Z,70.70
2018-05-11T16:21:57.507Z,70.70
2018-05-11T16:24:25.609Z,70.90
2018-05-11T16:26:54.658Z,71.00
2018-05-11T16:29:23.515Z,71.80
2018-05-11T16:31:51.658Z,71.80
2018-05-11T16:34:19.784Z,71.70
2018-05-11T16:36:47.936Z,71.50
2018-05-11T16:39:18.602Z,72.20
2018-05-11T16:41:46.804Z,72.30
2018-05-11T16:44:14.947Z,72.50
2018-05-11T16:46:43.063Z,73.00
2018-05-11T16:49:12.306Z,73.20
2018-05-11T16:51:40.427Z,72.50
2018-05-11T16:54:08.563Z,73.20
2018-05-11T16:56:36.697Z,72.90
2018-05-11T16:59:05.687Z,72.60
2018-05-11T17:01:34.655Z,73.30
2018-05-11T17:04:02.789Z,73.10
2018-05-11T17:06:30.916Z,73.60
2018-05-11T17:08:59.924Z,73.80
2018-05-11T17:11:28.043Z,74.60
2018-05-11T17:13:56.206Z,74.90
2018-05-11T17:16:25.113Z,74.00
2018-05-11T17:18:53.171Z,74.00
2018-05-11T17:21:21.346Z,74.70
2018-05-11T17:23:49.478Z,74.10
2018-05-11T17:26:17.595Z,73.50
2018-05-11T17:28:45.734Z,72.50
2018-05-11T17:31:13.855Z,72.80
2018-05-11T17:33:41.987Z,72.60
2018-05-11T17:36:10.873Z,73.00
2018-05-11T17:38:40.143Z,72.90
2018-05-11T17:41:08.286Z,73.80
2018-05-11T17:43:36.436Z,73.50
2018-05-11T17:46:05.803Z,74.10
2018-05-11T17:48:33.960Z,74.70
2018-05-11T17:51:02.255Z,75.70
2018-05-11T17:53:30.413Z,75.10
2018-05-11T17:55:59.533Z,75.00
2018-05-11T17:58:27.813Z,75.10
2018-05-11T18:00:57.540Z,74.90
2018-05-11T18:03:27.254Z,75.30
2018-05-11T18:05:56.135Z,75.00
2018-05-11T18:08:24.267Z,74.80
2018-05-11T18:10:52.769Z,75.40
2018-05-11T18:13:27.091Z,75.60
2018-05-11T18:15:55.206Z,75.60
2018-05-11T18:18:23.371Z,77.00
2018-05-11T18:20:52.109Z,77.30
2018-05-11T18:23:20.253Z,78.20
2018-05-11T18:25:48.358Z,79.00
2018-05-11T18:28:16.495Z,78.90
2018-05-11T18:30:44.656Z,80.10
2018-05-11T18:33:12.798Z,80.10
2018-05-11T18:35:42.472Z,80.80
2018-05-11T18:38:11.370Z,81.20
2018-05-11T18:40:40.255Z,81.20
2018-05-11T18:43:14.935Z,81.10
2018-05-11T18:45:43.049Z,82.10
2018-05-11T18:48:11.970Z,81.70
2018-05-11T18:50:40.088Z,81.70
2018-05-11T18:53:08.515Z,81.80
2018-05-11T18:55:37.993Z,81.80
2018-05-11T18:58:06.143Z,82.50
2018-05-11T19:00:34.261Z,83.20
2018-05-11T19:03:03.167Z,82.20
2018-05-11T19:05:31.282Z,82.10
2018-05-11T19:08:01.037Z,82.60
2018-05-11T19:10:29.948Z,82.50
2018-05-11T19:12:58.071Z,82.50
2018-05-11T19:15:26.223Z,82.70
2018-05-11T19:17:54.434Z,82.90
2018-05-11T19:20:22.508Z,82.90
2018-05-11T19:22:50.657Z,83.10
2018-05-11T19:25:18.837Z,83.80
2018-05-11T19:27:46.977Z,84.10
2018-05-11T19:30:15.933Z,84.20
2018-05-11T19:32:44.815Z,84.40
2018-05-11T19:35:13.723Z,85.80
2018-05-11T19:37:42.747Z,85.80
2018-05-11T19:40:10.891Z,86.00
2018-05-11T19:42:39.768Z,86.10
2018-05-11T19:45:08.053Z,86.90
2018-05-11T19:47:36.947Z,87.00
2018-05-11T19:50:06.092Z,87.10
2018-05-11T19:52:34.261Z,87.20
2018-05-11T19:55:02.456Z,87.10
2018-05-11T19:57:30.687Z,87.30
2018-05-11T19:59:58.867Z,86.90
2018-05-11T20:02:28.571Z,87.20
2018-05-11T20:04:56.757Z,87.20
2018-05-11T20:07:24.872Z,87.30
2018-05-11T20:09:53.777Z,87.20
2018-05-11T20:12:22.269Z,87.60
2018-05-11T20:14:51.174Z,88.50
2018-05-11T20:17:19.273Z,88.50
2018-05-11T20:19:47.412Z,88.30
2018-05-11T20:22:15.526Z,88.40
2018-05-11T20:24:43.666Z,88.30
2018-05-11T20:27:11.777Z,88.20
2018-05-11T20:29:39.915Z,88.30
2018-05-11T20:32:08.037Z,89.00
2018-05-11T20:34:36.198Z,89.20
2018-05-11T20:37:04.302Z,89.20
2018-05-11T20:39:33.201Z,89.30
2018-05-11T20:42:01.698Z,89.30
2018-05-11T20:44:29.849Z,89.50
2018-05-11T20:46:57.977Z,89.70
2018-05-11T20:49:26.114Z,90.00
2018-05-11T20:51:54.990Z,90.10
2018-05-11T20:54:23.878Z,90.10
2018-05-11T20:56:52.763Z,90.20
2018-05-11T20:59:20.905Z,90.20
2018-05-11T21:01:49.021Z,90.20
2018-05-11T21:04:17.926Z,90.10
2018-05-11T21:06:46.051Z,90.10
2018-05-11T21:09:14.189Z,90.20
2018-05-11T21:11:42.307Z,90.30
2018-05-11T21:14:10.430Z,90.40
2018-05-11T21:16:38.559Z,90.50
2018-05-11T21:19:06.695Z,90.40
2018-05-11T21:21:34.822Z,90.60
2018-05-11T21:24:04.533Z,90.70
2018-05-11T21:26:33.429Z,90.80
2018-05-11T21:29:02.422Z,90.80
2018-05-11T21:31:31.315Z,90.60
2018-05-11T21:34:00.219Z,90.60
2018-05-11T21:36:28.330Z,90.60
2018-05-11T21:38:58.415Z,90.90
2018-05-11T21:41:29.208Z,91.00
2018-05-11T21:43:57.340Z,91.00
2018-05-11T21:46:25.458Z,91.00
2018-05-11T21:48:53.581Z,90.90
2018-05-11T21:51:21.704Z,91.00
2018-05-11T21:53:49.822Z,91.30
2018-05-11T21:56:17.949Z,91.50
2018-05-11T21:58:46.566Z,91.70
2018-05-11T22:01:15.496Z,92.00
2018-05-11T22:03:43.618Z,92.00
2018-05-11T22:06:12.533Z,91.90
2018-05-11T22:08:40.655Z,91.90
2018-05-11T22:11:08.800Z,92.00
2018-05-11T22:13:36.969Z,91.80
2018-05-11T22:16:05.847Z,92.00
2018-05-11T22:18:33.965Z,92.00
2018-05-11T22:21:02.106Z,92.10
2018-05-11T22:23:30.236Z,92.20
2018-05-11T22:25:58.379Z,92.10
2018-05-11T22:28:26.492Z,92.30
2018-05-11T22:30:55.224Z,92.10
2018-05-11T22:33:23.352Z,91.90
2018-05-11T22:35:51.500Z,92.20
2018-05-11T22:38:19.620Z,92.00
2018-05-11T22:40:47.773Z,91.40
2018-05-11T22:43:16.653Z,92.00
2018-05-11T22:45:44.803Z,91.80
2018-05-11T22:48:14.133Z,92.00
2018-05-11T22:50:42.278Z,91.90
2018-05-11T22:53:10.385Z,91.90
2018-05-11T22:58:08.673Z,92.30
2018-05-11T23:00:39.261Z,92.10
2018-05-11T23:03:07.898Z,92.10
2018-05-11T23:05:36.798Z,92.30
2018-05-11T23:08:05.667Z,92.30
2018-05-11T23:10:33.804Z,92.30
2018-05-11T23:13:01.916Z,92.20
2018-05-11T23:15:32.059Z,93.00
2018-05-11T23:18:00.940Z,93.00
2018-05-11T23:20:29.848Z,93.00
2018-05-11T23:22:57.969Z,93.00
2018-05-11T23:25:26.110Z,92.90
2018-05-11T23:27:54.711Z,92.90
2018-05-11T23:30:22.851Z,93.00
2018-05-11T23:32:50.981Z,93.00
2018-05-11T23:35:19.498Z,92.90
2018-05-11T23:37:48.477Z,92.90
2018-05-11T23:40:17.064Z,93.00
2018-05-11T23:42:45.956Z,93.10
2018-05-11T23:45:14.866Z,93.30
2018-05-11T23:47:42.995Z,93.30
2018-05-11T23:50:11.176Z,93.30
2018-05-11T23:52:39.327Z,93.50
2018-05-11T23:55:07.464Z,93.20
2018-05-11T23:57:35.582Z,93.20
